Time;durP1;ratioP1;P1;durP2;ratioP2;P2;SDS_P1;SDS_P2;PMS_P1;PMS_P2;Temp;Humidity;BMP_temperature;BMP_pressure;BME280_temperature;BME280_humidity;BME280_pressure;Samples;Min_cycle;Max_cycle;Signal;HPM_P1;HPM_P2
2021/12/21 00:00:22;;;;;;;22.23;11.23;;;1.40;99.90;;;;;;5040961;28;20052;-71
2021/12/21 00:02:51;;;;;;;16.98;9.13;;;1.30;99.90;;;;;;5048668;28;20079;-71
2021/12/21 00:05:20;;;;;;;20.85;9.57;;;1.30;99.90;;;;;;5029422;28;20041;-71
2021/12/21 00:07:51;;;;;;;21.45;10.75;;;1.40;99.90;;;;;;5043868;28;20045;-71
2021/12/21 00:10:19;;;;;;;22.38;10.30;;;1.30;99.90;;;;;;5029061;28;20121;-71
2021/12/21 00:13:09;;;;;;;18.40;9.27;;;1.30;99.90;;;;;;5029102;28;20053;-71
2021/12/21 00:25:40;;;;;;;20.40;9.75;;;1.20;99.90;;;;;;5037364;28;20124;-70
2021/12/21 00:28:06;;;;;;;21.90;10.13;;;1.20;99.90;;;;;;5042960;28;20051;-71
2021/12/21 00:30:31;;;;;;;18.58;9.30;;;1.20;99.90;;;;;;5044474;28;20056;-71
2021/12/21 00:32:57;;;;;;;19.52;9.15;;;1.20;99.90;;;;;;5034135;28;20047;-71
2021/12/21 00:35:23;;;;;;;20.25;9.23;;;1.20;99.90;;;;;;5042834;28;20053;-71
2021/12/21 00:37:49;;;;;;;20.83;9.02;;;1.20;99.90;;;;;;5026923;28;20041;-71
2021/12/21 00:40:15;;;;;;;25.38;9.40;;;1.20;99.90;;;;;;5044772;28;20083;-70
2021/12/21 00:42:40;;;;;;;24.77;9.80;;;1.90;99.90;;;;;;5032900;28;20505;-71
2021/12/21 00:45:07;;;;;;;20.13;9.95;;;1.20;99.90;;;;;;5028562;28;20045;-71
2021/12/21 00:47:34;;;;;;;25.70;10.45;;;1.20;99.90;;;;;;5028542;28;20440;-70
2021/12/21 00:50:03;;;;;;;19.88;9.00;;;1.10;99.90;;;;;;5026353;28;20095;-71
2021/12/21 00:52:29;;;;;;;20.08;7.95;;;1.10;99.90;;;;;;5039196;28;20151;-71
2021/12/21 00:54:54;;;;;;;14.82;7.72;;;1.20;99.90;;;;;;5047570;28;20554;-71
2021/12/21 00:57:20;;;;;;;15.77;7.80;;;1.20;99.90;;;;;;5043949;28;20116;-71
2021/12/21 00:59:46;;;;;;;20.60;8.73;;;1.20;99.90;;;;;;5047707;28;20117;-71
2021/12/21 01:02:12;;;;;;;16.65;8.07;;;1.30;99.90;;;;;;5048849;28;20048;-71
2021/12/21 01:04:43;;;;;;;27.20;7.65;;;1.30;99.90;;;;;;5047799;28;20049;-71
2021/12/21 01:07:20;;;;;;;16.15;7.22;;;1.30;99.90;;;;;;5045298;28;20344;-71
2021/12/21 01:12:32;;;;;;;19.70;9.23;;;1.40;99.90;;;;;;5030187;28;20060;-71
2021/12/21 01:17:49;;;;;;;20.83;10.23;;;1.50;99.90;;;;;;5034870;28;20639;-71
2021/12/21 01:28:36;;;;;;;20.42;10.27;;;1.20;99.90;;;;;;5030521;28;20187;-70
2021/12/21 01:31:21;;;;;;;22.20;10.05;;;1.20;99.90;;;;;;5042989;28;20120;-71
2021/12/21 01:34:11;;;;;;;18.85;10.40;;;1.30;99.90;;;;;;5031367;28;20081;-71
2021/12/21 01:36:56;;;;;;;19.25;9.55;;;1.20;99.90;;;;;;5041062;28;20048;-71
2021/12/21 01:42:00;;;;;;;18.33;8.73;;;1.10;99.90;;;;;;5032455;28;20119;-71
2021/12/21 01:49:34;;;;;;;17.27;9.05;;;1.10;99.90;;;;;;5050302;28;20048;-71
2021/12/21 01:50:08;;;;;;;21.20;10.98;;;1.00;99.90;;;;;;5043522;28;20057;-71
2021/12/21 01:52:34;;;;;;;23.30;11.07;;;1.00;99.90;;;;;;5037081;28;20413;-71
2021/12/21 01:54:59;;;;;;;25.23;11.35;;;1.00;99.90;;;;;;5051761;28;20128;-71
2021/12/21 01:57:25;;;;;;;20.00;11.55;;;1.00;99.90;;;;;;5047282;28;20557;-71
2021/12/21 01:59:51;;;;;;;21.27;11.43;;;1.00;99.90;;;;;;5047186;28;20369;-71
2021/12/21 02:02:18;;;;;;;20.38;10.88;;;1.00;99.90;;;;;;5030749;28;20083;-70
2021/12/21 02:04:44;;;;;;;24.42;12.30;;;1.00;99.90;;;;;;5051232;28;20049;-70
2021/12/21 02:07:11;;;;;;;22.75;12.15;;;1.00;99.90;;;;;;5033627;28;20040;-71
2021/12/21 02:09:37;;;;;;;22.80;11.00;;;1.00;99.90;;;;;;5046610;28;20604;-70
2021/12/21 02:12:17;;;;;;;19.70;11.70;;;0.90;99.90;;;;;;5030289;28;20386;-71
2021/12/21 02:14:48;;;;;;;18.98;11.00;;;0.90;99.90;;;;;;5033231;28;20053;-71
2021/12/21 02:20:14;;;;;;;20.17;10.40;;;0.80;99.90;;;;;;5050766;28;20049;-71
2021/12/21 02:22:47;;;;;;;19.60;11.40;;;1.80;99.90;;;;;;5028615;28;20059;-71
2021/12/21 02:25:38;;;;;;;18.15;11.27;;;0.80;99.90;;;;;;5031649;28;20059;-70
2021/12/21 02:30:37;;;;;;;22.25;8.57;;;0.80;99.90;;;;;;5050150;28;20908;-70
2021/12/21 02:33:03;;;;;;;20.10;9.23;;;1.50;99.90;;;;;;5050642;28;20048;-70
2021/12/21 02:35:29;;;;;;;14.95;8.65;;;0.80;99.90;;;;;;5049289;28;20055;-70
2021/12/21 02:37:55;;;;;;;12.32;7.32;;;0.70;99.90;;;;;;5051198;28;20485;-70
2021/12/21 02:40:21;;;;;;;12.57;6.72;;;0.70;99.90;;;;;;5032667;28;20040;-71
2021/12/21 02:42:46;;;;;;;11.38;5.93;;;0.70;99.90;;;;;;5028410;28;20045;-70
2021/12/21 02:45:12;;;;;;;13.05;5.88;;;0.70;99.90;;;;;;5030564;28;20128;-71
2021/12/21 02:47:38;;;;;;;10.77;6.03;;;0.70;99.90;;;;;;5048401;28;20069;-71
2021/12/21 02:50:04;;;;;;;12.68;6.20;;;0.70;99.90;;;;;;5049622;28;20104;-70
2021/12/21 02:52:30;;;;;;;12.90;6.45;;;0.70;99.90;;;;;;5031835;28;20394;-70
2021/12/21 02:54:56;;;;;;;10.98;5.88;;;0.70;99.90;;;;;;5031428;28;20052;-70
2021/12/21 02:57:21;;;;;;;12.65;7.15;;;0.70;99.90;;;;;;5044814;28;20041;-71
2021/12/21 02:59:47;;;;;;;13.85;7.47;;;0.70;99.90;;;;;;5029292;28;20050;-70
2021/12/21 03:02:13;;;;;;;16.52;8.00;;;0.70;99.90;;;;;;5041534;28;20405;-70
2021/12/21 03:04:43;;;;;;;15.70;9.45;;;0.70;99.90;;;;;;5046299;28;20045;-70
2021/12/21 03:07:47;;;;;;;18.58;8.63;;;0.70;99.90;;;;;;5049428;28;20045;-71
2021/12/21 03:10:10;;;;;;;20.17;9.25;;;0.60;99.90;;;;;;5033793;28;20053;-70
2021/12/21 03:15:27;;;;;;;17.40;9.07;;;0.60;99.90;;;;;;5029699;28;20053;-70
2021/12/21 03:17:53;;;;;;;20.13;9.65;;;0.60;99.90;;;;;;5028466;28;20033;-70
2021/12/21 03:20:19;;;;;;;18.10;9.27;;;0.50;99.90;;;;;;5010749;28;20460;-71
2021/12/21 03:22:46;;;;;;;16.77;9.52;;;0.60;99.90;;;;;;5028550;28;20103;-70
2021/12/21 03:25:12;;;;;;;14.90;8.93;;;0.50;99.90;;;;;;5030351;28;20392;-71
2021/12/21 03:27:38;;;;;;;17.10;9.40;;;0.50;99.90;;;;;;5047994;28;20049;-70
2021/12/21 03:30:05;;;;;;;16.60;8.57;;;0.50;99.90;;;;;;5049553;28;20101;-71
2021/12/21 03:32:31;;;;;;;15.43;9.00;;;0.50;99.90;;;;;;5032943;28;20111;-71
2021/12/21 03:34:56;;;;;;;14.88;8.90;;;0.40;99.90;;;;;;5028295;28;20049;-70
2021/12/21 03:37:22;;;;;;;19.35;9.13;;;0.40;99.90;;;;;;5028276;28;20065;-70
2021/12/21 03:39:50;;;;;;;16.13;9.00;;;0.40;99.90;;;;;;5044260;28;20052;-71
2021/12/21 03:42:16;;;;;;;15.85;8.55;;;0.40;99.90;;;;;;5045054;28;20415;-71
2021/12/21 03:44:42;;;;;;;16.70;9.13;;;0.40;99.90;;;;;;5034810;28;20049;-70
2021/12/21 03:47:10;;;;;;;18.85;9.18;;;0.40;99.90;;;;;;5048744;28;20041;-71
2021/12/21 03:52:05;;;;;;;19.20;8.93;;;0.40;99.90;;;;;;5050171;28;20060;-70
2021/12/21 03:54:31;;;;;;;15.95;7.82;;;0.40;99.90;;;;;;5045485;28;21535;-70
2021/12/21 03:56:57;;;;;;;11.95;7.22;;;0.30;99.90;;;;;;5026916;28;20099;-71
2021/12/21 03:59:22;;;;;;;11.90;7.82;;;0.30;99.90;;;;;;5031621;28;20225;-70
2021/12/21 04:01:49;;;;;;;13.60;7.35;;;0.30;99.90;;;;;;5047985;28;20523;-70
2021/12/21 04:04:18;;;;;;;14.32;7.95;;;0.30;99.90;;;;;;5049064;28;20041;-70
2021/12/21 04:06:45;;;;;;;12.85;6.55;;;0.40;99.90;;;;;;5027442;28;20053;-70
2021/12/21 04:09:10;;;;;;;12.93;6.45;;;0.40;99.90;;;;;;5037473;28;20124;-70
2021/12/21 04:11:36;;;;;;;12.30;5.45;;;0.40;99.90;;;;;;5040070;28;20112;-70
2021/12/21 04:14:02;;;;;;;10.00;5.95;;;0.40;99.90;;;;;;5028072;28;20046;-71
2021/12/21 04:16:29;;;;;;;11.38;6.10;;;0.40;99.90;;;;;;5027188;28;20411;-71
2021/12/21 04:18:54;;;;;;;13.07;5.55;;;0.40;99.90;;;;;;5028354;28;20490;-70
2021/12/21 04:21:20;;;;;;;11.07;5.75;;;0.40;99.90;;;;;;5026597;28;20053;-70
2021/12/21 04:23:46;;;;;;;12.48;5.22;;;0.40;99.90;;;;;;5029161;28;20068;-69
2021/12/21 04:26:13;;;;;;;10.65;5.35;;;0.40;99.90;;;;;;5026400;28;20518;-69
2021/12/21 04:28:40;;;;;;;10.57;6.10;;;0.40;99.90;;;;;;5027390;28;20079;-69
2021/12/21 04:31:06;;;;;;;14.63;6.88;;;0.40;99.90;;;;;;5048244;28;20036;-69
2021/12/21 04:33:33;;;;;;;13.00;5.60;;;0.40;99.90;;;;;;5030662;28;20079;-69
2021/12/21 04:36:00;;;;;;;9.40;5.25;;;0.40;99.90;;;;;;5045396;28;20048;-69
2021/12/21 04:38:31;;;;;;;10.27;5.05;;;0.50;99.90;;;;;;5044097;28;20045;-69
2021/12/21 04:41:05;;;;;;;10.88;5.10;;;0.50;99.90;;;;;;5030586;28;20390;-69
2021/12/21 04:43:31;;;;;;;10.90;6.00;;;0.50;99.90;;;;;;5043086;28;20098;-69
2021/12/21 04:45:57;;;;;;;9.75;4.57;;;0.50;99.90;;;;;;5042660;28;20348;-69
2021/12/21 04:48:23;;;;;;;8.50;4.90;;;0.50;99.90;;;;;;5026207;28;20168;-69
2021/12/21 04:50:50;;;;;;;8.68;5.40;;;0.50;99.90;;;;;;5045240;28;20116;-69
2021/12/21 04:53:16;;;;;;;14.27;5.40;;;0.40;99.90;;;;;;5035837;28;20053;-69
2021/12/21 04:55:41;;;;;;;9.48;5.47;;;0.90;99.90;;;;;;5031247;28;20068;-69
2021/12/21 04:58:07;;;;;;;11.13;5.68;;;0.40;99.90;;;;;;5026362;28;20466;-69
2021/12/21 05:00:34;;;;;;;9.00;5.07;;;0.40;99.90;;;;;;5028133;28;20046;-69
2021/12/21 05:02:59;;;;;;;11.40;6.20;;;0.40;99.90;;;;;;5037438;28;20049;-68
2021/12/21 05:05:25;;;;;;;14.55;5.25;;;0.30;99.90;;;;;;5048486;28;20072;-69
2021/12/21 05:08:05;;;;;;;12.75;5.95;;;0.30;99.90;;;;;;5045260;28;20075;-69
2021/12/21 05:10:31;;;;;;;11.57;5.30;;;0.30;99.90;;;;;;5034591;28;20056;-69
2021/12/21 05:12:56;;;;;;;11.50;5.80;;;0.20;99.90;;;;;;5031553;28;20056;-69
2021/12/21 05:15:22;;;;;;;8.70;5.10;;;0.20;99.90;;;;;;5014207;28;20053;-69
2021/12/21 05:17:47;;;;;;;11.52;5.32;;;0.20;99.90;;;;;;5032913;28;20508;-69
2021/12/21 05:20:13;;;;;;;12.85;5.68;;;0.30;99.90;;;;;;5046987;28;20060;-70
2021/12/21 05:22:39;;;;;;;10.38;5.25;;;0.30;99.90;;;;;;5046852;28;20390;-69
2021/12/21 05:25:05;;;;;;;7.82;5.07;;;0.30;99.90;;;;;;5050944;28;20500;-69
2021/12/21 05:27:30;;;;;;;13.43;5.15;;;1.00;99.90;;;;;;5049376;28;20056;-69
2021/12/21 05:29:56;;;;;;;9.13;4.97;;;0.30;99.90;;;;;;5051784;28;20033;-69
2021/12/21 05:32:22;;;;;;;11.60;4.82;;;0.40;99.90;;;;;;5047894;28;20076;-69
2021/12/21 05:34:48;;;;;;;8.95;4.93;;;0.30;99.90;;;;;;5052374;28;20057;-69
2021/12/21 05:37:14;;;;;;;13.32;5.05;;;0.40;99.90;;;;;;5041152;28;20163;-70
2021/12/21 05:40:10;;;;;;;11.95;4.95;;;0.40;99.90;;;;;;5046823;28;20542;-69
2021/12/21 05:42:25;;;;;;;13.63;5.00;;;0.40;99.90;;;;;;5046961;28;20045;-69
2021/12/21 05:44:51;;;;;;;11.35;4.90;;;0.40;99.90;;;;;;5047460;28;20052;-70
2021/12/21 05:47:19;;;;;;;14.50;5.55;;;1.10;99.90;;;;;;5031152;28;20045;-69
2021/12/21 05:49:45;;;;;;;11.48;5.75;;;0.40;99.90;;;;;;5032155;28;20038;-69
2021/12/21 05:52:11;;;;;;;12.63;5.60;;;0.40;99.90;;;;;;5031195;28;20427;-69
2021/12/21 05:54:37;;;;;;;11.98;5.20;;;0.40;99.90;;;;;;5050208;28;20528;-69
2021/12/21 05:57:03;;;;;;;13.00;5.93;;;0.30;99.90;;;;;;5031633;28;20050;-69
2021/12/21 05:59:29;;;;;;;9.85;5.35;;;0.30;99.90;;;;;;5048099;28;20037;-70
2021/12/21 06:01:55;;;;;;;10.77;4.60;;;0.30;99.90;;;;;;5049061;28;20037;-70
2021/12/21 06:04:21;;;;;;;11.57;4.88;;;0.20;99.90;;;;;;5050499;28;20063;-70
2021/12/21 06:06:47;;;;;;;11.85;5.20;;;0.20;99.90;;;;;;5027925;28;20044;-69
2021/12/21 06:09:14;;;;;;;10.70;5.10;;;0.20;99.90;;;;;;5035783;28;20476;-70
2021/12/21 06:11:47;;;;;;;9.25;5.15;;;0.20;99.90;;;;;;5030962;28;20425;-71
2021/12/21 06:25:25;;;;;;;9.90;5.90;;;0.20;99.90;;;;;;5051037;28;20041;-70
2021/12/21 06:27:51;;;;;;;12.48;5.90;;;0.20;99.90;;;;;;5046311;28;20355;-70
2021/12/21 06:30:17;;;;;;;9.30;5.43;;;0.10;99.90;;;;;;5046539;28;20042;-70
2021/12/21 06:32:43;;;;;;;9.90;5.90;;;0.10;99.90;;;;;;5036787;28;20091;-70
2021/12/21 06:35:09;;;;;;;11.65;6.45;;;0.00;99.90;;;;;;5047496;28;20087;-70
2021/12/21 06:37:35;;;;;;;12.07;5.93;;;0.00;99.90;;;;;;5029641;28;20474;-70
2021/12/21 06:40:01;;;;;;;11.55;5.30;;;-0.10;99.90;;;;;;5044779;28;20040;-70
2021/12/21 06:42:28;;;;;;;11.77;5.60;;;-0.10;99.90;;;;;;5038894;28;20041;-70
2021/12/21 06:44:57;;;;;;;12.02;4.90;;;-0.10;99.90;;;;;;5050443;28;20048;-70
2021/12/21 06:52:54;;;;;;;9.67;5.10;;;-0.10;99.90;;;;;;5029251;28;20061;-70
2021/12/21 06:55:20;;;;;;;8.27;4.55;;;-0.20;99.90;;;;;;5047314;28;20656;-71
2021/12/21 06:57:46;;;;;;;9.73;4.40;;;-0.10;99.90;;;;;;5049045;28;20092;-66
2021/12/21 07:00:14;;;;;;;9.65;4.50;;;0.00;99.90;;;;;;5048834;28;20088;-67
2021/12/21 07:02:40;;;;;;;8.90;5.35;;;0.00;99.90;;;;;;5048898;28;20584;-67
2021/12/21 07:05:07;;;;;;;10.85;5.00;;;0.00;99.90;;;;;;5046912;28;20393;-67
2021/12/21 07:07:33;;;;;;;10.23;5.25;;;0.00;99.90;;;;;;5030982;28;20053;-67
2021/12/21 07:10:02;;;;;;;11.27;4.90;;;0.00;99.90;;;;;;5047841;28;20485;-66
2021/12/21 07:20:25;;;;;;;11.40;5.70;;;0.00;99.90;;;;;;5046102;28;20581;-66
2021/12/21 07:22:51;;;;;;;9.23;5.45;;;0.00;99.90;;;;;;5047821;28;20140;-66
2021/12/21 07:25:16;;;;;;;11.63;5.05;;;0.00;99.90;;;;;;5047768;28;20044;-67
2021/12/21 07:27:42;;;;;;;12.07;5.82;;;0.10;99.90;;;;;;5030185;28;20043;-67
2021/12/21 07:30:09;;;;;;;9.48;5.82;;;0.10;99.90;;;;;;5029853;28;20446;-68
2021/12/21 07:32:34;;;;;;;15.48;5.95;;;0.10;99.90;;;;;;5030197;28;20128;-68
2021/12/21 07:35:00;;;;;;;11.13;5.72;;;0.00;99.90;;;;;;5031509;28;20128;-67
2021/12/21 07:37:26;;;;;;;13.00;6.35;;;0.10;99.90;;;;;;5044721;28;20107;-67
2021/12/21 07:39:52;;;;;;;18.40;9.63;;;0.10;99.90;;;;;;5048236;28;20091;-68
2021/12/21 07:42:19;;;;;;;17.60;9.52;;;1.00;99.90;;;;;;5046816;28;20128;-67
2021/12/21 07:44:45;;;;;;;14.70;7.30;;;0.10;99.90;;;;;;5047629;28;20037;-68
2021/12/21 07:47:11;;;;;;;9.80;5.78;;;0.10;99.90;;;;;;5048805;28;20350;-70
2021/12/21 07:49:46;;;;;;;12.45;6.63;;;0.10;99.90;;;;;;5085800;27;20401;-68
2021/12/21 07:52:13;;;;;;;11.25;5.97;;;1.00;99.90;;;;;;5073608;28;20049;-68
2021/12/21 07:54:38;;;;;;;12.52;6.93;;;0.20;99.90;;;;;;5082058;28;20079;-66
2021/12/21 07:57:06;;;;;;;15.68;6.57;;;0.20;99.90;;;;;;5083572;28;20090;-66
2021/12/21 07:59:33;;;;;;;12.48;6.60;;;0.20;99.90;;;;;;5082054;28;20052;-66
2021/12/21 08:01:59;;;;;;;13.85;6.95;;;0.20;99.90;;;;;;5084234;28;20146;-66
2021/12/21 08:04:27;;;;;;;10.43;6.40;;;0.20;99.90;;;;;;5074825;28;20484;-67
2021/12/21 08:06:56;;;;;;;13.70;7.05;;;0.20;99.90;;;;;;5077627;28;20075;-67
2021/12/21 08:09:25;;;;;;;13.00;7.57;;;0.20;99.90;;;;;;5092917;28;20481;-67
2021/12/21 08:14:35;;;;;;;13.27;7.63;;;0.30;99.90;;;;;;5090562;28;20484;-67
2021/12/21 08:17:00;;;;;;;14.98;8.63;;;0.30;99.90;;;;;;5090227;28;20067;-67
2021/12/21 08:19:26;;;;;;;14.85;8.82;;;0.30;99.90;;;;;;5085286;28;20482;-67
2021/12/21 08:21:52;;;;;;;16.83;9.75;;;0.30;99.90;;;;;;5091700;28;20055;-67
2021/12/21 08:24:17;;;;;;;15.88;8.73;;;0.60;99.90;;;;;;5072281;28;20055;-67
2021/12/21 08:26:43;;;;;;;13.98;9.15;;;0.20;99.90;;;;;;5103486;28;20090;-67
2021/12/21 08:29:09;;;;;;;17.23;9.02;;;0.20;99.90;;;;;;5090139;28;20109;-67
2021/12/21 08:31:34;;;;;;;19.25;8.98;;;0.20;99.90;;;;;;5084034;28;20432;-67
2021/12/21 08:34:00;;;;;;;15.02;8.85;;;0.30;99.90;;;;;;5080432;28;20086;-66
2021/12/21 08:36:26;;;;;;;16.85;8.25;;;0.30;99.90;;;;;;5111326;28;20124;-67
2021/12/21 08:38:51;;;;;;;12.65;8.48;;;0.40;99.90;;;;;;5081609;28;20068;-67
2021/12/21 08:41:17;;;;;;;13.65;8.40;;;0.40;99.90;;;;;;5083203;28;20089;-67
2021/12/21 08:43:43;;;;;;;16.33;9.25;;;0.40;99.90;;;;;;5090774;28;20052;-67
2021/12/21 08:46:09;;;;;;;15.25;8.63;;;0.40;99.90;;;;;;5084903;28;20072;-67
2021/12/21 08:48:35;;;;;;;16.42;8.80;;;0.40;99.90;;;;;;5083741;28;20056;-67
2021/12/21 08:51:01;;;;;;;18.52;8.52;;;0.50;99.90;;;;;;5082287;28;20044;-67
2021/12/21 08:53:27;;;;;;;14.45;8.27;;;0.60;99.90;;;;;;5083088;28;20058;-67
2021/12/21 08:55:57;;;;;;;16.05;8.35;;;0.70;99.90;;;;;;5084203;28;20428;-67
2021/12/21 08:58:23;;;;;;;14.88;8.52;;;0.70;99.90;;;;;;5069411;28;20112;-67
2021/12/21 09:00:50;;;;;;;16.08;8.35;;;1.10;99.90;;;;;;5053038;28;20123;-67
2021/12/21 09:03:17;;;;;;;14.85;9.18;;;0.80;99.90;;;;;;5050632;28;20556;-68
2021/12/21 09:05:42;;;;;;;15.73;8.48;;;0.90;99.90;;;;;;5050245;28;20143;-67
2021/12/21 09:08:10;;;;;;;13.13;7.85;;;1.00;99.90;;;;;;5065404;28;20492;-67
2021/12/21 09:10:36;;;;;;;14.00;8.27;;;1.10;99.90;;;;;;5050439;28;20049;-68
2021/12/21 09:13:02;;;;;;;16.45;8.55;;;1.10;99.90;;;;;;5057336;28;20041;-67
2021/12/21 09:15:30;;;;;;;14.50;8.40;;;1.30;99.90;;;;;;5068664;28;20561;-67
2021/12/21 09:17:56;;;;;;;12.75;8.00;;;2.20;99.90;;;;;;5068534;28;20076;-68
2021/12/21 09:20:24;;;;;;;13.75;7.72;;;1.50;99.90;;;;;;5070964;28;20059;-67
2021/12/21 09:22:51;;;;;;;13.50;7.13;;;2.00;99.90;;;;;;5066841;28;20052;-68
2021/12/21 09:25:18;;;;;;;12.35;7.53;;;4.30;99.90;;;;;;5069099;28;20055;-68
2021/12/21 09:27:44;;;;;;;13.88;6.97;;;6.20;99.90;;;;;;5069903;28;20056;-68
2021/12/21 09:30:13;;;;;;;12.77;6.65;;;6.90;99.90;;;;;;5069033;28;20044;-68
2021/12/21 09:32:40;;;;;;;13.90;7.20;;;8.80;99.90;;;;;;5052142;28;20044;-67
2021/12/21 09:35:06;;;;;;;17.73;7.25;;;10.20;99.90;;;;;;5079118;28;20052;-68
2021/12/21 09:37:32;;;;;;;14.43;7.10;;;10.10;99.90;;;;;;5055153;28;20496;-68
2021/12/21 09:39:59;;;;;;;13.07;6.88;;;11.10;99.90;;;;;;5095976;28;20048;-68
2021/12/21 09:42:29;;;;;;;17.60;8.25;;;11.70;99.90;;;;;;5068555;28;20041;-68
2021/12/21 09:44:56;;;;;;;11.25;6.75;;;11.50;99.90;;;;;;5069331;28;20056;-68
2021/12/21 09:47:22;;;;;;;12.88;7.38;;;11.80;99.90;;;;;;5068131;28;20164;-68
2021/12/21 09:49:49;;;;;;;15.73;7.88;;;12.30;99.70;;;;;;5067819;28;20090;-68
2021/12/21 09:52:18;;;;;;;12.88;8.00;;;12.30;97.30;;;;;;5068454;28;20543;-69
2021/12/21 09:54:44;;;;;;;11.68;7.57;;;11.80;99.10;;;;;;5070535;28;20068;-68
2021/12/21 09:57:11;;;;;;;12.82;9.25;;;12.10;98.70;;;;;;5065937;28;20060;-68
2021/12/21 09:59:36;;;;;;;17.00;8.93;;;12.70;97.90;;;;;;5049797;28;20195;-68
2021/12/21 10:02:03;;;;;;;14.40;8.95;;;12.30;97.10;;;;;;5049389;28;20157;-68
2021/12/21 10:04:30;;;;;;;13.57;8.73;;;12.10;96.20;;;;;;5085117;28;20040;-68
2021/12/21 10:06:57;;;;;;;16.85;8.82;;;12.00;97.00;;;;;;5087562;28;20048;-68
2021/12/21 10:09:31;;;;;;;14.60;8.55;;;11.80;96.80;;;;;;5087245;28;20175;-68
2021/12/21 10:11:57;;;;;;;12.23;6.70;;;11.30;96.80;;;;;;5075996;28;20044;-68
2021/12/21 10:14:25;;;;;;;12.10;7.00;;;10.70;97.20;;;;;;5068064;28;20040;-68
2021/12/21 10:17:09;;;;;;;13.02;6.93;;;10.90;96.90;;;;;;5068952;28;20064;-68
2021/12/21 10:19:37;;;;;;;13.00;6.70;;;11.20;97.30;;;;;;5069895;28;20037;-69
2021/12/21 10:22:14;;;;;;;9.20;6.00;;;11.20;97.30;;;;;;5053123;28;20045;-68
2021/12/21 10:24:58;;;;;;;12.70;6.45;;;11.00;96.70;;;;;;5071073;28;20051;-66
2021/12/21 10:27:25;;;;;;;10.70;6.38;;;11.10;97.80;;;;;;5046616;28;20045;-66
2021/12/21 10:29:59;;;;;;;15.77;6.13;;;11.60;96.80;;;;;;5064112;28;20055;-66
2021/12/21 10:32:30;;;;;;;10.65;6.30;;;12.10;96.20;;;;;;5067065;28;20150;-66
2021/12/21 10:35:13;;;;;;;11.73;5.95;;;12.20;96.00;;;;;;5085081;28;20051;-66
2021/12/21 10:37:40;;;;;;;9.20;5.53;;;12.40;95.40;;;;;;5079217;28;20120;-66
2021/12/21 10:40:26;;;;;;;10.63;5.75;;;12.90;95.30;;;;;;5066881;28;20048;-67
2021/12/21 10:42:56;;;;;;;8.75;5.75;;;13.40;93.60;;;;;;5050847;28;20092;-68
2021/12/21 10:45:42;;;;;;;11.27;5.40;;;13.80;92.40;;;;;;5066825;28;20044;-68
2021/12/21 10:48:15;;;;;;;11.02;5.70;;;13.50;92.00;;;;;;5068137;28;20496;-69
2021/12/21 10:50:46;;;;;;;9.50;5.00;;;13.80;90.90;;;;;;5058467;28;20098;-68
2021/12/21 10:53:23;;;;;;;10.93;5.38;;;14.20;91.40;;;;;;5052689;28;20043;-68
2021/12/21 10:56:18;;;;;;;12.02;5.25;;;14.70;87.50;;;;;;5068699;28;20055;-68
2021/12/21 10:58:45;;;;;;;9.43;4.78;;;15.30;90.10;;;;;;5069778;28;20049;-68
2021/12/21 11:01:15;;;;;;;10.68;5.32;;;15.60;88.00;;;;;;5052868;28;20037;-69
2021/12/21 11:03:54;;;;;;;9.45;5.13;;;16.80;79.60;;;;;;5089259;28;20032;-68
2021/12/21 11:06:26;;;;;;;9.75;4.68;;;17.90;69.60;;;;;;5085989;28;20095;-68
2021/12/21 11:08:54;;;;;;;8.52;5.20;;;19.20;61.60;;;;;;5074564;28;20131;-68
2021/12/21 11:11:28;;;;;;;7.93;4.50;;;19.70;60.90;;;;;;5032302;28;20149;-68
2021/12/21 11:14:14;;;;;;;9.98;5.00;;;20.20;57.90;;;;;;5048408;28;20036;-67
2021/12/21 11:16:45;;;;;;;9.55;5.15;;;20.60;57.40;;;;;;5047609;28;20072;-66
2021/12/21 11:19:16;;;;;;;9.15;5.03;;;21.70;53.40;;;;;;5066018;28;20051;-67
2021/12/21 11:21:42;;;;;;;7.82;4.45;;;22.40;50.30;;;;;;5077698;28;20126;-69
2021/12/21 11:24:17;;;;;;;8.32;5.00;;;22.90;48.00;;;;;;5084774;28;20058;-68
2021/12/21 11:26:44;;;;;;;9.35;4.93;;;23.40;46.70;;;;;;5084377;28;20071;-68
2021/12/21 11:29:13;;;;;;;10.63;5.32;;;23.50;45.40;;;;;;5082464;28;20052;-68
2021/12/21 11:31:47;;;;;;;10.52;5.00;;;23.40;45.70;;;;;;5081319;28;20039;-68
2021/12/21 11:34:19;;;;;;;9.02;4.70;;;24.30;45.20;;;;;;5084429;28;20051;-68
2021/12/21 11:39:34;;;;;;;10.48;5.18;;;25.60;42.60;;;;;;5044630;28;20053;-69
2021/12/21 11:42:02;;;;;;;10.27;5.25;;;26.30;41.20;;;;;;5042071;28;20095;-69
2021/12/21 11:45:02;;;;;;;8.30;4.57;;;26.10;39.80;;;;;;5042459;28;20057;-69
2021/12/21 11:47:35;;;;;;;10.32;4.57;;;25.60;39.90;;;;;;5063459;28;20060;-69
2021/12/21 11:50:05;;;;;;;7.18;4.18;;;25.60;41.20;;;;;;5063689;28;20481;-67
2021/12/21 11:52:48;;;;;;;6.50;4.10;;;25.90;40.80;;;;;;5062536;28;20045;-69
2021/12/21 11:55:17;;;;;;;7.07;4.13;;;26.60;39.20;;;;;;5076057;28;20048;-68
2021/12/21 11:57:55;;;;;;;7.38;4.40;;;26.90;38.40;;;;;;5072600;28;20045;-68
2021/12/21 12:00:31;;;;;;;9.55;4.40;;;26.70;38.00;;;;;;5069191;28;20045;-68
2021/12/21 12:03:10;;;;;;;7.43;3.90;;;25.80;38.00;;;;;;5067594;28;20075;-68
2021/12/21 12:05:36;;;;;;;8.80;4.10;;;25.60;38.60;;;;;;5067370;28;20435;-69
2021/12/21 12:08:04;;;;;;;8.60;4.45;;;26.30;37.90;;;;;;5067001;28;20504;-68
2021/12/21 12:10:31;;;;;;;8.10;4.03;;;26.60;38.30;;;;;;5081502;28;20115;-68
2021/12/21 12:13:14;;;;;;;9.07;4.22;;;26.80;37.90;;;;;;5085831;28;20119;-70
2021/12/21 12:15:45;;;;;;;8.32;4.13;;;26.70;37.80;;;;;;5088514;28;20039;-68
2021/12/21 12:18:22;;;;;;;7.13;4.10;;;26.40;38.20;;;;;;5086671;28;20044;-69
2021/12/21 12:20:48;;;;;;;9.85;4.30;;;25.60;37.80;;;;;;5086132;28;20040;-68
2021/12/21 12:23:16;;;;;;;9.15;4.10;;;24.70;39.70;;;;;;5084713;28;20456;-69
2021/12/21 12:26:03;;;;;;;7.85;4.13;;;24.90;40.20;;;;;;5068678;28;20044;-68
2021/12/21 12:28:35;;;;;;;8.00;4.10;;;25.90;38.90;;;;;;5066093;28;20477;-69
2021/12/21 12:31:01;;;;;;;8.23;4.10;;;26.40;38.00;;;;;;5066427;28;20051;-69
2021/12/21 12:33:40;;;;;;;8.88;4.30;;;26.40;37.80;;;;;;5066380;28;20060;-68
2021/12/21 12:36:06;;;;;;;7.82;3.90;;;26.70;37.00;;;;;;5070296;28;20093;-69
2021/12/21 12:38:41;;;;;;;9.55;3.83;;;25.90;37.30;;;;;;5069082;28;20424;-69
2021/12/21 12:41:11;;;;;;;;;;;25.50;36.60;;;;;;5071418;28;20052;-69
2021/12/21 12:43:41;;;;;;;8.10;3.42;;;25.20;36.40;;;;;;5070578;28;19920;-68
2021/12/21 12:46:09;;;;;;;7.28;3.50;;;25.00;36.50;;;;;;5085517;28;20041;-68
2021/12/21 12:48:43;;;;;;;8.80;3.47;;;24.90;37.00;;;;;;5056888;28;20056;-68
2021/12/21 12:51:22;;;;;;;8.48;3.60;;;25.00;36.50;;;;;;5051170;28;20402;-68
2021/12/21 12:53:48;;;;;;;7.90;3.17;;;24.70;36.80;;;;;;5053345;28;20444;-68
2021/12/21 12:56:16;;;;;;;7.32;3.42;;;23.90;37.60;;;;;;5052254;28;20469;-68
2021/12/21 12:59:04;;;;;;;6.38;3.65;;;22.80;38.00;;;;;;5050002;28;20082;-68
2021/12/21 13:01:32;;;;;;;9.75;4.03;;;22.10;40.00;;;;;;5048788;28;20049;-66
2021/12/21 13:04:08;;;;;;;9.27;3.83;;;22.00;39.80;;;;;;5053481;28;20094;-66
2021/12/21 13:06:35;;;;;;;;;;;21.80;39.90;;;;;;5088223;28;20358;-66
2021/12/21 13:09:06;;;;;;;8.32;3.53;;;21.80;40.80;;;;;;5091157;28;19920;-66
2021/12/21 13:11:33;;;;;;;8.95;4.00;;;21.20;40.70;;;;;;5086786;28;20361;-66
2021/12/21 13:14:00;;;;;;;8.63;3.65;;;21.10;39.70;;;;;;5074100;28;20105;-66
2021/12/21 13:16:28;;;;;;;7.97;3.67;;;21.00;40.90;;;;;;5089250;28;20094;-66
2021/12/21 13:18:57;;;;;;;7.40;3.53;;;19.20;41.60;;;;;;5086189;28;20404;-67
2021/12/21 13:21:26;;;;;;;8.02;4.00;;;17.70;43.20;;;;;;5062467;28;20462;-67
2021/12/21 13:24:08;;;;;;;6.25;3.55;;;16.20;45.20;;;;;;5067541;28;20411;-68
2021/12/21 13:26:50;;;;;;;10.30;4.38;;;15.00;47.20;;;;;;5070034;28;20484;-67
2021/12/21 13:29:18;;;;;;;8.20;3.92;;;14.20;49.70;;;;;;5070936;28;20052;-67
2021/12/21 13:31:47;;;;;;;9.07;3.72;;;13.10;51.60;;;;;;5071216;28;20136;-68
2021/12/21 13:34:14;;;;;;;8.52;3.67;;;13.40;54.20;;;;;;5053232;28;20044;-67
2021/12/21 13:36:43;;;;;;;8.55;3.50;;;11.80;55.10;;;;;;5050947;28;20044;-67
2021/12/21 13:39:35;;;;;;;7.85;3.70;;;11.10;57.00;;;;;;5070499;28;20051;-67
2021/12/21 13:42:19;;;;;;;6.70;3.58;;;10.60;59.70;;;;;;5089356;28;20047;-68
2021/12/21 13:44:54;;;;;;;9.00;3.88;;;10.30;63.20;;;;;;5090926;28;20108;-67
2021/12/21 13:47:30;;;;;;;8.63;4.23;;;10.00;66.40;;;;;;5088398;28;20048;-67
2021/12/21 13:49:59;;;;;;;8.23;3.90;;;9.90;69.40;;;;;;5091346;28;20098;-67
2021/12/21 13:52:27;;;;;;;10.32;4.28;;;9.70;72.90;;;;;;5088983;28;20055;-67
2021/12/21 13:54:53;;;;;;;7.90;4.03;;;9.40;76.50;;;;;;5089965;28;20067;-68
2021/12/21 13:57:21;;;;;;;10.43;4.20;;;9.10;80.50;;;;;;5089491;28;20036;-66
2021/12/21 13:59:48;;;;;;;10.05;4.28;;;8.80;84.60;;;;;;5088394;28;20403;-66
2021/12/21 14:02:29;;;;;;;8.50;4.30;;;8.60;88.40;;;;;;5091300;28;20445;-66
2021/12/21 14:05:03;;;;;;;7.72;3.75;;;8.30;90.80;;;;;;5089043;28;20063;-65